sensor_id;sensor_type;location;lat;lon;timestamp;pressure;altitude;pressure_sealevel;temperature;humidity
46944;BME280;32678;43.852;25.952;2022-11-15T00:01:14;102057.91;;;9.79;79.88
46944;BME280;32678;43.852;25.952;2022-11-15T00:06:32;102046.75;;;9.60;80.06
46944;BME280;32678;43.852;25.952;2022-11-15T00:11:47;102044.13;;;9.58;80.80
46944;BME280;32678;43.852;25.952;2022-11-15T00:17:05;102043.13;;;9.75;80.12
46944;BME280;32678;43.852;25.952;2022-11-15T00:22:22;102029.06;;;9.86;79.65
46944;BME280;32678;43.852;25.952;2022-11-15T00:27:38;102025.00;;;9.50;81.04
46944;BME280;32678;43.852;25.952;2022-11-15T00:32:54;102024.28;;;9.32;81.90
46944;BME280;32678;43.852;25.952;2022-11-15T00:38:10;102023.47;;;9.27;82.14
46944;BME280;32678;43.852;25.952;2022-11-15T00:43:28;102020.75;;;9.36;82.41
46944;BME280;32678;43.852;25.952;2022-11-15T00:48:45;102014.34;;;9.72;81.05
46944;BME280;32678;43.852;25.952;2022-11-15T00:54:01;102015.88;;;9.94;79.95
46944;BME280;32678;43.852;25.952;2022-11-15T00:59:16;102004.44;;;10.01;79.30
46944;BME280;32678;43.852;25.952;2022-11-15T01:04:32;102009.59;;;10.10;78.47
46944;BME280;32678;43.852;25.952;2022-11-15T01:09:49;102007.78;;;10.17;77.93
46944;BME280;32678;43.852;25.952;2022-11-15T01:15:04;102003.72;;;9.87;77.83
46944;BME280;32678;43.852;25.952;2022-11-15T01:20:20;101999.06;;;10.12;77.82
46944;BME280;32678;43.852;25.952;2022-11-15T01:25:35;102006.03;;;10.19;77.23
46944;BME280;32678;43.852;25.952;2022-11-15T01:30:51;101993.63;;;10.31;76.93
46944;BME280;32678;43.852;25.952;2022-11-15T01:36:10;101991.81;;;10.36;75.78
46944;BME280;32678;43.852;25.952;2022-11-15T01:41:29;101989.78;;;9.83;76.75
46944;BME280;32678;43.852;25.952;2022-11-15T01:46:45;101989.03;;;9.72;77.07
46944;BME280;32678;43.852;25.952;2022-11-15T01:52:03;101983.72;;;9.81;76.85
46944;BME280;32678;43.852;25.952;2022-11-15T01:57:20;101978.47;;;9.81;76.37
46944;BME280;32678;43.852;25.952;2022-11-15T02:02:35;101978.41;;;9.84;76.38
46944;BME280;32678;43.852;25.952;2022-11-15T02:07:51;101972.22;;;9.93;76.07
46944;BME280;32678;43.852;25.952;2022-11-15T02:13:07;101964.41;;;9.88;76.07
46944;BME280;32678;43.852;25.952;2022-11-15T02:18:23;101968.66;;;10.00;75.69
46944;BME280;32678;43.852;25.952;2022-11-15T02:24:02;101967.91;;;9.87;75.84
46944;BME280;32678;43.852;25.952;2022-11-15T02:29:28;101955.91;;;9.67;76.31
46944;BME280;32678;43.852;25.952;2022-11-15T02:34:48;101956.34;;;10.07;75.86
46944;BME280;32678;43.852;25.952;2022-11-15T02:40:06;101949.19;;;10.22;74.99
46944;BME280;32678;43.852;25.952;2022-11-15T02:45:27;101960.59;;;10.20;74.79
46944;BME280;32678;43.852;25.952;2022-11-15T02:50:46;101954.38;;;10.27;74.56
46944;BME280;32678;43.852;25.952;2022-11-15T02:56:02;101952.47;;;10.38;74.77
46944;BME280;32678;43.852;25.952;2022-11-15T03:01:21;101960.19;;;10.50;73.62
46944;BME280;32678;43.852;25.952;2022-11-15T03:06:40;101959.28;;;10.51;73.10
46944;BME280;32678;43.852;25.952;2022-11-15T03:11:58;101943.81;;;10.34;73.46
46944;BME280;32678;43.852;25.952;2022-11-15T03:17:16;101943.91;;;10.25;73.18
46944;BME280;32678;43.852;25.952;2022-11-15T03:22:35;101943.44;;;9.90;75.16
46944;BME280;32678;43.852;25.952;2022-11-15T03:27:52;101935.34;;;10.11;74.45
46944;BME280;32678;43.852;25.952;2022-11-15T03:33:12;101932.53;;;10.28;73.83
46944;BME280;32678;43.852;25.952;2022-11-15T03:38:29;101935.75;;;10.48;73.42
46944;BME280;32678;43.852;25.952;2022-11-15T03:43:47;101930.44;;;10.51;72.53
46944;BME280;32678;43.852;25.952;2022-11-15T03:49:07;101924.09;;;10.69;72.74
46944;BME280;32678;43.852;25.952;2022-11-15T03:54:24;101924.56;;;10.94;71.90
46944;BME280;32678;43.852;25.952;2022-11-15T03:59:40;101909.72;;;10.93;71.04
46944;BME280;32678;43.852;25.952;2022-11-15T04:04:58;101911.50;;;10.91;70.55
46944;BME280;32678;43.852;25.952;2022-11-15T04:10:16;101904.78;;;10.73;71.22
46944;BME280;32678;43.852;25.952;2022-11-15T04:15:32;101911.63;;;10.22;72.72
46944;BME280;32678;43.852;25.952;2022-11-15T04:20:47;101893.78;;;10.48;72.24
46944;BME280;32678;43.852;25.952;2022-11-15T04:26:24;101907.03;;;10.39;72.53
46944;BME280;32678;43.852;25.952;2022-11-15T04:31:40;101879.97;;;10.37;72.10
46944;BME280;32678;43.852;25.952;2022-11-15T04:36:55;101905.94;;;10.54;71.79
46944;BME280;32678;43.852;25.952;2022-11-15T04:42:31;101897.19;;;10.55;72.06
46944;BME280;32678;43.852;25.952;2022-11-15T04:47:46;101894.59;;;10.52;72.11
46944;BME280;32678;43.852;25.952;2022-11-15T04:53:02;101891.09;;;10.51;71.67
46944;BME280;32678;43.852;25.952;2022-11-15T04:58:18;101895.25;;;10.66;71.64
46944;BME280;32678;43.852;25.952;2022-11-15T05:03:38;101899.56;;;10.71;71.13
46944;BME280;32678;43.852;25.952;2022-11-15T05:09:11;101899.34;;;10.85;70.22
46944;BME280;32678;43.852;25.952;2022-11-15T05:14:29;101899.34;;;10.85;70.28
46944;BME280;32678;43.852;25.952;2022-11-15T05:19:44;101889.94;;;10.70;70.71
46944;BME280;32678;43.852;25.952;2022-11-15T05:24:59;101891.59;;;10.76;70.15
46944;BME280;32678;43.852;25.952;2022-11-15T05:30:15;101889.03;;;10.74;70.58
46944;BME280;32678;43.852;25.952;2022-11-15T05:35:32;101889.69;;;10.87;69.98
46944;BME280;32678;43.852;25.952;2022-11-15T05:40:50;101891.47;;;10.85;69.67
46944;BME280;32678;43.852;25.952;2022-11-15T05:46:07;101894.22;;;10.79;70.13
46944;BME280;32678;43.852;25.952;2022-11-15T05:51:22;101895.66;;;10.97;69.63
46944;BME280;32678;43.852;25.952;2022-11-15T05:56:38;101888.56;;;11.02;69.13
46944;BME280;32678;43.852;25.952;2022-11-15T06:01:55;101892.16;;;10.96;69.18
46944;BME280;32678;43.852;25.952;2022-11-15T06:07:10;101896.50;;;10.99;69.43
46944;BME280;32678;43.852;25.952;2022-11-15T06:12:26;101900.72;;;11.09;68.73
46944;BME280;32678;43.852;25.952;2022-11-15T06:17:44;101902.47;;;11.07;68.05
46944;BME280;32678;43.852;25.952;2022-11-15T06:23:03;101906.00;;;11.06;68.95
46944;BME280;32678;43.852;25.952;2022-11-15T06:28:19;101902.50;;;11.05;68.90
46944;BME280;32678;43.852;25.952;2022-11-15T06:33:39;101900.66;;;10.57;69.66
46944;BME280;32678;43.852;25.952;2022-11-15T06:38:56;101903.03;;;10.72;69.32
46944;BME280;32678;43.852;25.952;2022-11-15T06:44:14;101909.22;;;10.68;69.55
46944;BME280;32678;43.852;25.952;2022-11-15T06:49:31;101887.38;;;10.69;69.38
46944;BME280;32678;43.852;25.952;2022-11-15T06:54:49;101904.53;;;10.90;69.33
46944;BME280;32678;43.852;25.952;2022-11-15T07:00:05;101906.09;;;11.00;69.12
46944;BME280;32678;43.852;25.952;2022-11-15T07:05:21;101903.19;;;10.61;69.78
46944;BME280;32678;43.852;25.952;2022-11-15T07:10:37;101890.75;;;10.75;69.74
46944;BME280;32678;43.852;25.952;2022-11-15T07:15:53;101895.63;;;10.98;68.75
46944;BME280;32678;43.852;25.952;2022-11-15T07:21:09;101889.63;;;10.92;68.58
46944;BME280;32678;43.852;25.952;2022-11-15T07:26:27;101883.31;;;11.02;68.74
46944;BME280;32678;43.852;25.952;2022-11-15T07:31:43;101883.03;;;10.66;69.61
46944;BME280;32678;43.852;25.952;2022-11-15T07:37:00;101880.94;;;10.88;69.21
46944;BME280;32678;43.852;25.952;2022-11-15T07:42:16;101885.88;;;11.06;68.48
46944;BME280;32678;43.852;25.952;2022-11-15T07:47:57;101878.88;;;11.07;67.86
46944;BME280;32678;43.852;25.952;2022-11-15T07:53:13;101872.91;;;10.96;68.61
46944;BME280;32678;43.852;25.952;2022-11-15T07:58:28;101874.66;;;10.97;68.74
46944;BME280;32678;43.852;25.952;2022-11-15T08:03:43;101866.69;;;11.03;68.93
46944;BME280;32678;43.852;25.952;2022-11-15T08:08:59;101877.00;;;11.13;68.44
46944;BME280;32678;43.852;25.952;2022-11-15T08:14:15;101881.81;;;10.87;68.82
46944;BME280;32678;43.852;25.952;2022-11-15T08:19:32;101873.53;;;11.11;68.54
46944;BME280;32678;43.852;25.952;2022-11-15T08:24:50;101863.06;;;11.10;68.22
46944;BME280;32678;43.852;25.952;2022-11-15T08:30:08;101855.00;;;11.20;68.35
46944;BME280;32678;43.852;25.952;2022-11-15T08:35:25;101857.69;;;11.16;68.28
46944;BME280;32678;43.852;25.952;2022-11-15T08:40:46;101852.41;;;11.19;67.60
46944;BME280;32678;43.852;25.952;2022-11-15T08:46:02;101842.88;;;11.13;68.23
46944;BME280;32678;43.852;25.952;2022-11-15T08:51:20;101839.41;;;11.11;68.48
46944;BME280;32678;43.852;25.952;2022-11-15T08:56:36;101829.94;;;11.04;68.90
46944;BME280;32678;43.852;25.952;2022-11-15T09:01:52;101835.09;;;11.09;68.99
46944;BME280;32678;43.852;25.952;2022-11-15T09:07:07;101829.25;;;10.92;69.28
46944;BME280;32678;43.852;25.952;2022-11-15T09:12:22;101824.78;;;10.98;69.14
46944;BME280;32678;43.852;25.952;2022-11-15T09:17:38;101812.50;;;11.00;69.74
46944;BME280;32678;43.852;25.952;2022-11-15T09:22:53;101804.03;;;10.84;69.39
46944;BME280;32678;43.852;25.952;2022-11-15T09:28:09;101795.97;;;10.45;70.16
46944;BME280;32678;43.852;25.952;2022-11-15T09:33:28;101784.53;;;10.50;70.34
46944;BME280;32678;43.852;25.952;2022-11-15T09:38:44;101779.06;;;10.61;70.61
46944;BME280;32678;43.852;25.952;2022-11-15T09:44:05;101763.94;;;10.78;70.28
46944;BME280;32678;43.852;25.952;2022-11-15T09:49:23;101755.72;;;10.95;69.85
46944;BME280;32678;43.852;25.952;2022-11-15T09:54:23;101753.69;;;11.10;69.56
46944;BME280;32678;43.852;25.952;2022-11-15T09:59:51;101758.06;;;11.10;69.18
46944;BME280;32678;43.852;25.952;2022-11-15T10:04:51;101751.63;;;11.26;68.97
46944;BME280;32678;43.852;25.952;2022-11-15T10:09:51;101748.91;;;11.32;68.81
46944;BME280;32678;43.852;25.952;2022-11-15T10:14:51;101745.31;;;11.36;69.16
46944;BME280;32678;43.852;25.952;2022-11-15T10:19:56;101733.38;;;11.20;69.10
46944;BME280;32678;43.852;25.952;2022-11-15T10:25:12;101719.34;;;11.22;68.95
46944;BME280;32678;43.852;25.952;2022-11-15T10:30:13;101708.84;;;11.22;68.96
46944;BME280;32678;43.852;25.952;2022-11-15T10:35:23;101701.94;;;11.17;69.16
46944;BME280;32678;43.852;25.952;2022-11-15T10:40:26;101693.13;;;11.21;69.31
46944;BME280;32678;43.852;25.952;2022-11-15T10:45:25;101690.38;;;11.27;69.52
46944;BME280;32678;43.852;25.952;2022-11-15T10:50:31;101683.13;;;11.38;69.27
46944;BME280;32678;43.852;25.952;2022-11-15T10:55:29;101680.44;;;11.41;68.86
46944;BME280;32678;43.852;25.952;2022-11-15T11:00:29;101672.56;;;11.41;68.59
46944;BME280;32678;43.852;25.952;2022-11-15T11:05:30;101670.69;;;11.46;68.09
46944;BME280;32678;43.852;25.952;2022-11-15T11:10:40;101658.31;;;11.51;67.98
46944;BME280;32678;43.852;25.952;2022-11-15T11:15:55;101655.84;;;11.44;67.50
46944;BME280;32678;43.852;25.952;2022-11-15T11:20:57;101644.41;;;11.48;68.13
46944;BME280;32678;43.852;25.952;2022-11-15T11:25:56;101635.69;;;11.46;67.63
46944;BME280;32678;43.852;25.952;2022-11-15T11:31:05;101627.63;;;11.53;67.61
46944;BME280;32678;43.852;25.952;2022-11-15T11:36:11;101623.94;;;11.62;67.38
46944;BME280;32678;43.852;25.952;2022-11-15T11:41:15;101614.31;;;11.62;67.44
46944;BME280;32678;43.852;25.952;2022-11-15T11:51:28;101606.44;;;11.61;67.01
46944;BME280;32678;43.852;25.952;2022-11-15T11:56:27;101611.59;;;11.65;66.77
46944;BME280;32678;43.852;25.952;2022-11-15T12:01:28;101609.72;;;11.70;66.77
46944;BME280;32678;43.852;25.952;2022-11-15T12:06:29;101608.19;;;11.62;67.21
46944;BME280;32678;43.852;25.952;2022-11-15T12:11:28;101598.53;;;11.62;67.04
46944;BME280;32678;43.852;25.952;2022-11-15T12:16:27;101588.78;;;11.67;66.99
46944;BME280;32678;43.852;25.952;2022-11-15T12:21:25;101586.03;;;11.73;66.66
46944;BME280;32678;43.852;25.952;2022-11-15T12:26:30;101581.75;;;11.68;66.34
46944;BME280;32678;43.852;25.952;2022-11-15T12:31:35;101570.31;;;11.70;66.39
46944;BME280;32678;43.852;25.952;2022-11-15T12:36:37;101568.72;;;11.63;66.35
46944;BME280;32678;43.852;25.952;2022-11-15T12:41:36;101558.38;;;11.57;66.08
46944;BME280;32678;43.852;25.952;2022-11-15T13:02:18;101546.66;;;11.70;66.30
46944;BME280;32678;43.852;25.952;2022-11-15T13:17:47;101533.06;;;11.90;65.35
46944;BME280;32678;43.852;25.952;2022-11-15T13:22:45;101524.97;;;11.98;65.09
46944;BME280;32678;43.852;25.952;2022-11-15T13:27:48;101517.16;;;11.96;65.27
46944;BME280;32678;43.852;25.952;2022-11-15T13:32:49;101491.94;;;11.88;65.40
46944;BME280;32678;43.852;25.952;2022-11-15T13:37:47;101502.06;;;12.03;65.64
46944;BME280;32678;43.852;25.952;2022-11-15T13:42:46;101502.13;;;12.01;65.41
46944;BME280;32678;43.852;25.952;2022-11-15T13:47:42;101498.78;;;11.95;65.11
46944;BME280;32678;43.852;25.952;2022-11-15T13:52:40;101496.53;;;11.81;65.35
46944;BME280;32678;43.852;25.952;2022-11-15T13:57:40;101484.28;;;11.80;65.61
46944;BME280;32678;43.852;25.952;2022-11-15T14:02:43;101483.53;;;11.75;66.16
46944;BME280;32678;43.852;25.952;2022-11-15T14:07:44;101482.00;;;11.66;66.36
46944;BME280;32678;43.852;25.952;2022-11-15T14:12:50;101450.16;;;11.45;66.61
46944;BME280;32678;43.852;25.952;2022-11-15T14:17:47;101464.75;;;11.56;66.36
46944;BME280;32678;43.852;25.952;2022-11-15T14:22:51;101464.75;;;11.55;66.74
46944;BME280;32678;43.852;25.952;2022-11-15T14:28:07;101466.78;;;11.44;66.99
46944;BME280;32678;43.852;25.952;2022-11-15T14:33:14;101442.25;;;11.45;67.35
46944;BME280;32678;43.852;25.952;2022-11-15T14:38:14;101444.78;;;11.49;67.48
46944;BME280;32678;43.852;25.952;2022-11-15T14:43:14;101435.56;;;11.67;66.94
46944;BME280;32678;43.852;25.952;2022-11-15T14:48:10;101441.81;;;11.63;66.86
46944;BME280;32678;43.852;25.952;2022-11-15T14:53:11;101432.84;;;11.70;66.53
46944;BME280;32678;43.852;25.952;2022-11-15T14:58:09;101432.22;;;11.60;66.71
46944;BME280;32678;43.852;25.952;2022-11-15T15:03:06;101431.50;;;11.55;67.05
46944;BME280;32678;43.852;25.952;2022-11-15T15:08:06;101437.38;;;11.65;66.99
46944;BME280;32678;43.852;25.952;2022-11-15T15:13:03;101432.00;;;11.69;67.05
46944;BME280;32678;43.852;25.952;2022-11-15T15:18:06;101430.13;;;11.75;66.75
46944;BME280;32678;43.852;25.952;2022-11-15T15:23:04;101426.28;;;11.54;66.81
46944;BME280;32678;43.852;25.952;2022-11-15T15:28:03;101429.28;;;11.39;67.20
46944;BME280;32678;43.852;25.952;2022-11-15T15:33:00;101425.97;;;11.32;67.60
46944;BME280;32678;43.852;25.952;2022-11-15T15:37:57;101427.72;;;11.33;67.71
46944;BME280;32678;43.852;25.952;2022-11-15T15:42:59;101412.22;;;11.22;68.16
46944;BME280;32678;43.852;25.952;2022-11-15T15:47:57;101412.50;;;11.10;68.53
46944;BME280;32678;43.852;25.952;2022-11-15T15:52:54;101404.25;;;10.90;68.98
46944;BME280;32678;43.852;25.952;2022-11-15T15:57:56;101399.75;;;10.97;68.97
46944;BME280;32678;43.852;25.952;2022-11-15T16:02:53;101399.72;;;10.98;69.22
46944;BME280;32678;43.852;25.952;2022-11-15T16:07:49;101397.00;;;11.01;69.26
46944;BME280;32678;43.852;25.952;2022-11-15T16:12:46;101394.34;;;11.03;69.30
46944;BME280;32678;43.852;25.952;2022-11-15T16:17:48;101397.75;;;11.06;69.03
46944;BME280;32678;43.852;25.952;2022-11-15T16:22:46;101395.00;;;11.11;69.07
46944;BME280;32678;43.852;25.952;2022-11-15T16:27:43;101389.00;;;11.06;69.20
46944;BME280;32678;43.852;25.952;2022-11-15T16:32:44;101388.84;;;11.13;69.16
46944;BME280;32678;43.852;25.952;2022-11-15T16:37:44;101392.03;;;11.24;68.64
46944;BME280;32678;43.852;25.952;2022-11-15T16:42:43;101391.25;;;11.21;68.56
46944;BME280;32678;43.852;25.952;2022-11-15T16:47:40;101385.19;;;11.19;68.47
46944;BME280;32678;43.852;25.952;2022-11-15T16:52:37;101386.75;;;11.26;68.38
46944;BME280;32678;43.852;25.952;2022-11-15T16:57:35;101379.66;;;11.29;68.49
46944;BME280;32678;43.852;25.952;2022-11-15T17:02:32;101374.06;;;11.43;68.14
46944;BME280;32678;43.852;25.952;2022-11-15T17:07:29;101375.63;;;11.49;67.59
46944;BME280;32678;43.852;25.952;2022-11-15T17:12:28;101357.50;;;11.40;67.41
46944;BME280;32678;43.852;25.952;2022-11-15T17:17:26;101345.97;;;11.45;67.28
46944;BME280;32678;43.852;25.952;2022-11-15T17:22:25;101347.84;;;11.42;67.37
46944;BME280;32678;43.852;25.952;2022-11-15T17:27:21;101342.72;;;11.37;67.06
46944;BME280;32678;43.852;25.952;2022-11-15T17:32:19;101335.47;;;11.45;66.90
46944;BME280;32678;43.852;25.952;2022-11-15T17:37:19;101337.38;;;11.40;67.00
46944;BME280;32678;43.852;25.952;2022-11-15T17:42:16;101331.72;;;11.23;67.13
46944;BME280;32678;43.852;25.952;2022-11-15T17:47:15;101318.41;;;10.97;67.80
46944;BME280;32678;43.852;25.952;2022-11-15T17:52:14;101318.75;;;10.83;68.75
46944;BME280;32678;43.852;25.952;2022-11-15T17:57:11;101319.91;;;10.71;69.35
46944;BME280;32678;43.852;25.952;2022-11-15T18:02:08;101320.31;;;10.90;68.88
46944;BME280;32678;43.852;25.952;2022-11-15T18:07:06;101313.13;;;10.63;69.15
46944;BME280;32678;43.852;25.952;2022-11-15T18:12:03;101308.88;;;10.59;69.34
46944;BME280;32678;43.852;25.952;2022-11-15T18:17:00;101307.78;;;10.67;69.68
46944;BME280;32678;43.852;25.952;2022-11-15T18:22:00;101309.03;;;10.86;69.70
46944;BME280;32678;43.852;25.952;2022-11-15T18:27:02;101305.41;;;10.92;69.31
46944;BME280;32678;43.852;25.952;2022-11-15T18:32:03;101301.50;;;10.74;68.92
46944;BME280;32678;43.852;25.952;2022-11-15T18:37:05;101304.31;;;10.65;69.84
46944;BME280;32678;43.852;25.952;2022-11-15T18:42:03;101295.91;;;10.53;69.93
46944;BME280;32678;43.852;25.952;2022-11-15T18:47:03;101299.81;;;9.96;72.24
46944;BME280;32678;43.852;25.952;2022-11-15T18:51:59;101283.28;;;10.31;71.71
46944;BME280;32678;43.852;25.952;2022-11-15T18:56:56;101279.19;;;10.57;71.16
46944;BME280;32678;43.852;25.952;2022-11-15T19:01:56;101279.94;;;10.62;70.80
46944;BME280;32678;43.852;25.952;2022-11-15T19:06:53;101281.66;;;10.64;69.92
46944;BME280;32678;43.852;25.952;2022-11-15T19:11:50;101267.59;;;10.65;70.54
46944;BME280;32678;43.852;25.952;2022-11-15T19:16:48;101269.78;;;10.50;70.27
46944;BME280;32678;43.852;25.952;2022-11-15T19:21:47;101263.94;;;10.72;69.86
46944;BME280;32678;43.852;25.952;2022-11-15T19:26:47;101257.91;;;10.69;70.03
46944;BME280;32678;43.852;25.952;2022-11-15T19:31:44;101248.44;;;10.28;70.89
46944;BME280;32678;43.852;25.952;2022-11-15T19:36:43;101245.59;;;10.37;71.54
46944;BME280;32678;43.852;25.952;2022-11-15T19:41:43;101238.50;;;10.76;70.96
46944;BME280;32678;43.852;25.952;2022-11-15T19:46:40;101232.31;;;10.78;69.84
46944;BME280;32678;43.852;25.952;2022-11-15T19:51:37;101229.75;;;10.75;69.89
46944;BME280;32678;43.852;25.952;2022-11-15T19:56:38;101222.72;;;10.77;69.44
46944;BME280;32678;43.852;25.952;2022-11-15T20:01:50;101220.84;;;10.82;69.51
46944;BME280;32678;43.852;25.952;2022-11-15T20:06:47;101223.13;;;10.95;69.16
46944;BME280;32678;43.852;25.952;2022-11-15T20:11:47;101219.19;;;11.11;69.10
46944;BME280;32678;43.852;25.952;2022-11-15T20:16:44;101208.84;;;11.05;68.41
46944;BME280;32678;43.852;25.952;2022-11-15T20:21:57;101210.53;;;11.07;68.55
46944;BME280;32678;43.852;25.952;2022-11-15T20:26:54;101204.31;;;11.11;68.66
46944;BME280;32678;43.852;25.952;2022-11-15T20:31:50;101190.81;;;10.94;69.15
46944;BME280;32678;43.852;25.952;2022-11-15T20:36:47;101192.34;;;11.01;69.12
46944;BME280;32678;43.852;25.952;2022-11-15T20:41:44;101187.03;;;11.04;69.28
46944;BME280;32678;43.852;25.952;2022-11-15T20:46:43;101170.91;;;10.85;69.50
46944;BME280;32678;43.852;25.952;2022-11-15T20:51:47;101147.56;;;10.76;69.74
46944;BME280;32678;43.852;25.952;2022-11-15T20:56:47;101167.97;;;10.98;69.70
46944;BME280;32678;43.852;25.952;2022-11-15T21:01:46;101159.78;;;11.08;69.41
46944;BME280;32678;43.852;25.952;2022-11-15T21:06:45;101169.69;;;10.99;69.78
46944;BME280;32678;43.852;25.952;2022-11-15T21:11:45;101166.34;;;10.94;69.89
46944;BME280;32678;43.852;25.952;2022-11-15T21:17:02;101152.66;;;11.13;69.51
46944;BME280;32678;43.852;25.952;2022-11-15T21:21:59;101144.56;;;11.19;69.32
46944;BME280;32678;43.852;25.952;2022-11-15T21:26:56;101144.19;;;11.33;68.80
46944;BME280;32678;43.852;25.952;2022-11-15T21:31:55;101134.72;;;10.98;68.91
46944;BME280;32678;43.852;25.952;2022-11-15T21:36:59;101137.88;;;10.46;70.71
46944;BME280;32678;43.852;25.952;2022-11-15T21:42:00;101129.28;;;10.41;71.33
46944;BME280;32678;43.852;25.952;2022-11-15T21:46:59;101120.81;;;10.31;72.42
46944;BME280;32678;43.852;25.952;2022-11-15T21:51:59;101107.72;;;9.96;72.93
46944;BME280;32678;43.852;25.952;2022-11-15T21:56:56;101103.69;;;10.18;73.00
46944;BME280;32678;43.852;25.952;2022-11-15T22:01:53;101090.75;;;10.11;73.29
46944;BME280;32678;43.852;25.952;2022-11-15T22:07:11;101088.28;;;10.40;72.68
46944;BME280;32678;43.852;25.952;2022-11-15T22:12:08;101089.56;;;10.56;72.04
46944;BME280;32678;43.852;25.952;2022-11-15T22:17:04;101082.66;;;10.21;71.94
46944;BME280;32678;43.852;25.952;2022-11-15T22:22:06;101078.44;;;10.16;72.75
46944;BME280;32678;43.852;25.952;2022-11-15T22:27:04;101075.03;;;10.11;73.26
46944;BME280;32678;43.852;25.952;2022-11-15T22:32:04;101063.00;;;10.04;73.13
46944;BME280;32678;43.852;25.952;2022-11-15T22:37:03;101050.53;;;9.78;74.23
46944;BME280;32678;43.852;25.952;2022-11-15T22:42:17;101048.25;;;9.99;74.18
46944;BME280;32678;43.852;25.952;2022-11-15T22:47:19;101043.50;;;10.14;73.70
46944;BME280;32678;43.852;25.952;2022-11-15T22:52:18;101033.91;;;10.14;73.78
46944;BME280;32678;43.852;25.952;2022-11-15T22:57:15;101020.94;;;10.08;73.38
46944;BME280;32678;43.852;25.952;2022-11-15T23:02:16;101008.75;;;10.07;73.91
46944;BME280;32678;43.852;25.952;2022-11-15T23:07:13;101002.34;;;10.19;73.44
46944;BME280;32678;43.852;25.952;2022-11-15T23:12:13;100996.88;;;10.26;73.25
46944;BME280;32678;43.852;25.952;2022-11-15T23:17:28;100993.44;;;10.26;72.80
46944;BME280;32678;43.852;25.952;2022-11-15T23:22:29;100987.13;;;10.00;73.80
46944;BME280;32678;43.852;25.952;2022-11-15T23:27:44;100987.53;;;9.51;75.01
46944;BME280;32678;43.852;25.952;2022-11-15T23:32:42;100959.03;;;9.39;75.43
46944;BME280;32678;43.852;25.952;2022-11-15T23:38:07;100970.72;;;9.60;76.61
46944;BME280;32678;43.852;25.952;2022-11-15T23:43:04;100964.94;;;9.81;75.31
46944;BME280;32678;43.852;25.952;2022-11-15T23:48:02;100961.63;;;9.73;75.68
46944;BME280;32678;43.852;25.952;2022-11-15T23:53:01;100962.31;;;9.81;75.23
46944;BME280;32678;43.852;25.952;2022-11-15T23:58:03;100963.34;;;9.76;75.09
